Archival Weather

Fukuoka

Fukuoka, Japan (RJFF)

Report from: Tuesday, August 16, 2022 4:00 PM JST
Current time: Sunday, November 27, 2022 6:01 PM JST

Current weather
Weather history
Weather forecast

Present weatherHeavy thunderstorm with rain, thunderstorm with rain
Temperature27.0°C (80.6°F)
Heat index30.6°C (87.0°F)
Dew point25.0°C (77.0°F)
Winds 9 kts (4.6 m/s, 10.4 mph) Vrb
Winds variableWinds variable from South-Southeast (160°) to Southwest (230°)
Visibility2.5 mi. (4 km)
Clouds Few clouds 1,000 ft. (305 m)
Scattered clouds with cumulonimbus 3,000 ft. (914 m)
Ceiling: Broken clouds 4,500 ft. (1,372 m)
Altimeter29.74 in.Hg (1007 mB)
Relative humidity89 %
Density altitude2,017 ft. (615 m)
Flight conditions Instrument Meteorological Conditions
Raw dataRJFF 160700Z 19009KT 160V230 4000 R16/2000N +TSRA FEW010 SCT030CB BKN045 27/25 Q1007 TEMPO 3000 TSRA BR
An error has occurred. This application may no longer respond until reloaded. Reload 🗙